WAQQ Airport Information

Runway Information
Airport Frequencies
Airport Navaids
Airport Weather Information & NOTAM
ADDS - METARS form results

(1029 UTC 21 May 2019)
Data provider http://aviationweather.gov/metar/data/
 
METAR text: WAQQ 211000Z 10002KT 9999 FEW015 30/25 Q1008
Conditions at: WAQQ (JUWATA , ID) observed 1000 UTC 21 May 2019
Temperature: 30.0°C (86°F)
Dewpoint: 25.0°C (77°F) [RH = 75%]
Pressure (altimeter): 29.76 inches Hg (1008.0 mb)
Winds: from the E (100 degrees) at 2 MPH (2 knots; 1.0 m/s)
Visibility: 6 or more miles (10+ km)
Ceiling: at least 12,000 feet AGL
Clouds: few clouds at 1500 feet AGL
Weather: no significant weather observed at this time

Forecast for: WAQQ (JUWATA , ID)
Text: TAF WAQQ 210500Z 2106/2118 36003KT 9999 BKN015
Forecast period: 0600 to 1000 UTC 21 May 2019
Forecast type: FROM: standard forecast or significant change
Winds: from the N (360 degrees) at 3 MPH (3 knots; 1.5 m/s)
Visibility: 6 or more miles 10+ km)
Ceiling: 1500 feet AGL
Clouds: broken clouds at 1500 feet AGL
Weather: no significant weather forecast for this period
Text: BECMG 2110/2112 12008KT 8000
Forecast period: 1000 to 1800 UTC 21 May 2019
Forecast type: BECOMING: Conditions expected to become as follows by 1200 UTC 21 May 2019
Winds: from the ESE (120 degrees) at 9 MPH (8 knots; 4.1 m/s)
Visibility: 5 miles (8 km)
Ceiling: 1500 feet AGL
Clouds: broken clouds at 1500 feet AGL
Weather: no significant weather forecast for this period